Jolyn — PJWG — position and weather

sailwx.info

Track history (hours):
 
Tides and Currents Weather Stations Pressure Air Temp Water Temp Dewpoint Dewpoint Depression Visibility Wind Speed Wind Dir Waves Ship Positions

Jolyn

Last reported at 2014-Dec-18 11:33 UTC. Time now 2014-Dec-18 12:31 UTC.
Position N 54°54' W 000°35'.

Length 89 m; draft 5.7 m.

Type: Cargo ship. MMSI: 306813000.

Date/timePositionNaut miles runAvg speedWind from/ knotsBaromVisibWave heightAir tempDewpointWater temp
2014-Dec-18 11:33N 54°54' W 000°35'10 9.8
2014-Dec-18 10:31N 55°02' W 000°47'9 9.5
2014-Dec-18 09:33N 55°09' W 000°57'88 8.7
2014-Dec-17 23:29N 56°28' W 002°06'  
2014-Dec-14 20:06N 56°34' W 002°27'5 8.4
2014-Dec-14 19:33N 56°29' W 002°28'8 8.4
2014-Dec-14 18:33N 56°21' W 002°27'9 8.9
2014-Dec-14 17:33N 56°13' W 002°19'8 7.7
2014-Dec-14 16:33N 56°07' W 002°10'8 8.3
2014-Dec-14 15:33N 56°01' W 002°01'59 8.4
2014-Dec-14 08:30N 55°06' W 001°19'9 9.3
2014-Dec-14 07:33N 54°58' W 001°18'4 4.2
2014-Dec-14 06:33N 54°54' W 001°22'0 0.0
2014-Dec-13 11:28N 54°54' W 001°22'0 0.0
2014-Dec-13 10:22N 54°54' W 001°22'0 0.0
2014-Dec-13 09:31N 54°54' W 001°22'0 0.0
2014-Dec-13 08:31N 54°54' W 001°22'0 0.0
2014-Dec-13 07:31N 54°54' W 001°22'0 0.0
2014-Dec-13 05:31N 54°54' W 001°22'0 0.0
2014-Dec-13 04:31N 54°54' W 001°22'0 0.0
2014-Dec-13 03:31N 54°54' W 001°22'0 0.0
2014-Dec-13 02:28N 54°54' W 001°22'0 0.0
2014-Dec-13 01:31N 54°54' W 001°22'0 0.0
2014-Dec-13 00:25N 54°54' W 001°22'0 0.0
2014-Dec-12 23:31N 54°54' W 001°22'0 0.0
2014-Dec-12 22:31N 54°54' W 001°22'0 0.0
2014-Dec-12 21:13N 54°54' W 001°22'0 0.0
2014-Dec-12 15:22N 54°54' W 001°22'0 0.0
2014-Dec-12 13:13N 54°54' W 001°22'0 0.0
2014-Dec-12 12:13N 54°54' W 001°22'0 0.0
2014-Dec-12 11:25N 54°54' W 001°22'0 0.0
2014-Dec-12 10:31N 54°54' W 001°22'0 0.0
2014-Dec-12 09:28N 54°54' W 001°22'0 0.0
2014-Dec-12 08:16N 54°54' W 001°22'0 0.0
2014-Dec-12 06:08N 54°54' W 001°22'0 0.0
2014-Dec-12 05:31N 54°54' W 001°22'0 0.0
2014-Dec-12 04:31N 54°54' W 001°22'0 0.0
2014-Dec-12 03:31N 54°54' W 001°22'0 0.0
2014-Dec-12 02:19N 54°54' W 001°22'0 0.0
2014-Dec-12 01:19N 54°54' W 001°22'0 0.0
2014-Dec-12 00:31N 54°54' W 001°22'0 0.0
2014-Dec-11 23:28N 54°54' W 001°22'0 0.0
2014-Dec-11 17:31N 54°54' W 001°22'0 0.0
2014-Dec-11 15:13N 54°54' W 001°22'0 0.0
2014-Dec-11 14:25N 54°54' W 001°22'0 0.0
2014-Dec-11 13:28N 54°54' W 001°22'0 0.0
2014-Dec-11 12:28N 54°54' W 001°22'0 0.0
2014-Dec-11 11:31N 54°54' W 001°22'0 0.0
2014-Dec-11 10:07N 54°54' W 001°22'0 0.0
2014-Dec-11 09:22N 54°54' W 001°22'0 0.0
2014-Dec-11 00:31N 54°54' W 001°22'0 0.0
2014-Dec-10 23:31N 54°54' W 001°22'0 0.0
2014-Dec-10 22:31N 54°54' W 001°22'0 0.0
2014-Dec-10 19:07N 54°54' W 001°22'0 0.0
2014-Dec-10 18:19N 54°54' W 001°22'0 0.0
2014-Dec-10 17:07N 54°54' W 001°22'1 0.1
2014-Dec-10 05:27N 54°55' W 001°22'5 6.0
2014-Dec-10 04:33N 54°54' W 001°13'9 9.3
2014-Dec-10 03:33N 54°50' W 000°58'9 8.7
2014-Dec-10 02:33N 54°46' W 000°44'9 8.9
2014-Dec-10 01:33N 54°43' W 000°30'9 9.4
2014-Dec-10 00:33N 54°40' W 000°15'10 9.7
2014-Dec-09 23:33N 54°36' E 000°01'10 9.7
2014-Dec-09 22:33N 54°32' E 000°16'9 9.5
2014-Dec-09 21:33N 54°28' E 000°31'161 8.9
2014-Dec-09 03:33N 53°54' E 004°59'1010.1
2014-Dec-09 02:33N 53°54' E 005°16'1010.0
2014-Dec-09 01:33N 53°54' E 005°33'1010.1
2014-Dec-09 00:33N 53°54' E 005°50'10 9.7
2014-Dec-08 23:29N 53°55' E 006°08'53 8.9
2014-Dec-08 17:33N 54°01' E 007°37'1010.1
2014-Dec-08 16:33N 54°01' E 007°54'1010.3
2014-Dec-08 15:33N 54°01' E 008°12'1111.3
2014-Dec-08 14:33N 53°59' E 008°31'10 9.6
2014-Dec-08 13:33N 53°53' E 008°43'8 8.2
2014-Dec-08 12:33N 53°51' E 008°57'7 7.4
2014-Dec-08 11:34N 53°54' E 009°09'  
Track history (hours):
 
Tides and Currents Weather Stations Pressure Air Temp Water Temp Dewpoint Dewpoint Depression Visibility Wind Speed Wind Dir Waves Ship Positions

Jolyn

Last reported at 2014-Dec-18 11:33 UTC. Time now 2014-Dec-18 12:31 UTC.
Position N 54°54' W 000°35'.

Length 89 m; draft 5.7 m.

Type: Cargo ship. MMSI: 306813000.

Date/timePositionNaut miles runAvg speedWind from/ knotsBaromVisibWave heightAir tempDewpointWater temp
2014-Dec-18 11:33N 54°54' W 000°35'10 9.8
2014-Dec-18 10:31N 55°02' W 000°47'9 9.5
2014-Dec-18 09:33N 55°09' W 000°57'88 8.7
2014-Dec-17 23:29N 56°28' W 002°06'  
2014-Dec-14 20:06N 56°34' W 002°27'5 8.4
2014-Dec-14 19:33N 56°29' W 002°28'8 8.4
2014-Dec-14 18:33N 56°21' W 002°27'9 8.9
2014-Dec-14 17:33N 56°13' W 002°19'8 7.7
2014-Dec-14 16:33N 56°07' W 002°10'8 8.3
2014-Dec-14 15:33N 56°01' W 002°01'59 8.4
2014-Dec-14 08:30N 55°06' W 001°19'9 9.3
2014-Dec-14 07:33N 54°58' W 001°18'4 4.2
2014-Dec-14 06:33N 54°54' W 001°22'0 0.0
2014-Dec-13 11:28N 54°54' W 001°22'0 0.0
2014-Dec-13 10:22N 54°54' W 001°22'0 0.0
2014-Dec-13 09:31N 54°54' W 001°22'0 0.0
2014-Dec-13 08:31N 54°54' W 001°22'0 0.0
2014-Dec-13 07:31N 54°54' W 001°22'0 0.0
2014-Dec-13 05:31N 54°54' W 001°22'0 0.0
2014-Dec-13 04:31N 54°54' W 001°22'0 0.0
2014-Dec-13 03:31N 54°54' W 001°22'0 0.0
2014-Dec-13 02:28N 54°54' W 001°22'0 0.0
2014-Dec-13 01:31N 54°54' W 001°22'0 0.0
2014-Dec-13 00:25N 54°54' W 001°22'0 0.0
2014-Dec-12 23:31N 54°54' W 001°22'0 0.0
2014-Dec-12 22:31N 54°54' W 001°22'0 0.0
2014-Dec-12 21:13N 54°54' W 001°22'0 0.0
2014-Dec-12 15:22N 54°54' W 001°22'0 0.0
2014-Dec-12 13:13N 54°54' W 001°22'0 0.0
2014-Dec-12 12:13N 54°54' W 001°22'0 0.0
2014-Dec-12 11:25N 54°54' W 001°22'0 0.0
2014-Dec-12 10:31N 54°54' W 001°22'0 0.0
2014-Dec-12 09:28N 54°54' W 001°22'0 0.0
2014-Dec-12 08:16N 54°54' W 001°22'0 0.0
2014-Dec-12 06:08N 54°54' W 001°22'0 0.0
2014-Dec-12 05:31N 54°54' W 001°22'0 0.0
2014-Dec-12 04:31N 54°54' W 001°22'0 0.0
2014-Dec-12 03:31N 54°54' W 001°22'0 0.0
2014-Dec-12 02:19N 54°54' W 001°22'0 0.0
2014-Dec-12 01:19N 54°54' W 001°22'0 0.0
2014-Dec-12 00:31N 54°54' W 001°22'0 0.0
2014-Dec-11 23:28N 54°54' W 001°22'0 0.0
2014-Dec-11 17:31N 54°54' W 001°22'0 0.0
2014-Dec-11 15:13N 54°54' W 001°22'0 0.0
2014-Dec-11 14:25N 54°54' W 001°22'0 0.0
2014-Dec-11 13:28N 54°54' W 001°22'0 0.0
2014-Dec-11 12:28N 54°54' W 001°22'0 0.0
2014-Dec-11 11:31N 54°54' W 001°22'0 0.0
2014-Dec-11 10:07N 54°54' W 001°22'0 0.0
2014-Dec-11 09:22N 54°54' W 001°22'0 0.0
2014-Dec-11 00:31N 54°54' W 001°22'0 0.0
2014-Dec-10 23:31N 54°54' W 001°22'0 0.0
2014-Dec-10 22:31N 54°54' W 001°22'0 0.0
2014-Dec-10 19:07N 54°54' W 001°22'0 0.0
2014-Dec-10 18:19N 54°54' W 001°22'0 0.0
2014-Dec-10 17:07N 54°54' W 001°22'1 0.1
2014-Dec-10 05:27N 54°55' W 001°22'5 6.0
2014-Dec-10 04:33N 54°54' W 001°13'9 9.3
2014-Dec-10 03:33N 54°50' W 000°58'9 8.7
2014-Dec-10 02:33N 54°46' W 000°44'9 8.9
2014-Dec-10 01:33N 54°43' W 000°30'9 9.4
2014-Dec-10 00:33N 54°40' W 000°15'10 9.7
2014-Dec-09 23:33N 54°36' E 000°01'10 9.7
2014-Dec-09 22:33N 54°32' E 000°16'9 9.5
2014-Dec-09 21:33N 54°28' E 000°31'161 8.9
2014-Dec-09 03:33N 53°54' E 004°59'1010.1
2014-Dec-09 02:33N 53°54' E 005°16'1010.0
2014-Dec-09 01:33N 53°54' E 005°33'1010.1
2014-Dec-09 00:33N 53°54' E 005°50'10 9.7
2014-Dec-08 23:29N 53°55' E 006°08'53 8.9
2014-Dec-08 17:33N 54°01' E 007°37'1010.1
2014-Dec-08 16:33N 54°01' E 007°54'1010.3
2014-Dec-08 15:33N 54°01' E 008°12'1111.3
2014-Dec-08 14:33N 53°59' E 008°31'10 9.6
2014-Dec-08 13:33N 53°53' E 008°43'8 8.2
2014-Dec-08 12:33N 53°51' E 008°57'7 7.4
2014-Dec-08 11:34N 53°54' E 009°09'  

Dump ship's entire track history